createdAt,value
2022-12-13T00:01:29.660Z,-2.60
2022-12-13T00:03:57.914Z,-2.63
2022-12-13T00:06:25.420Z,-2.64
2022-12-13T00:08:52.791Z,-2.63
2022-12-13T00:11:19.431Z,-2.62
2022-12-13T00:13:47.949Z,-2.60
2022-12-13T00:16:20.430Z,-2.58
2022-12-13T00:18:48.622Z,-2.59
2022-12-13T00:21:18.377Z,-2.59
2022-12-13T00:23:45.779Z,-2.56
2022-12-13T00:26:18.060Z,-2.55
2022-12-13T00:28:45.151Z,-2.52
2022-12-13T00:31:53.677Z,-2.50
2022-12-13T00:33:59.462Z,-2.50
2022-12-13T00:36:26.520Z,-2.50
2022-12-13T00:39:02.335Z,-2.52
2022-12-13T00:41:32.618Z,-2.57
2022-12-13T00:43:59.956Z,-2.62
2022-12-13T00:46:27.707Z,-2.66
2022-12-13T00:48:57.765Z,-2.68
2022-12-13T00:51:25.935Z,-2.70
2022-12-13T00:53:52.567Z,-2.72
2022-12-13T00:56:21.875Z,-2.73
2022-12-13T00:58:52.124Z,-2.77
2022-12-13T01:01:21.715Z,-2.79
2022-12-13T01:03:48.469Z,-2.78
2022-12-13T01:06:18.762Z,-2.76
2022-12-13T01:08:45.759Z,-2.76
2022-12-13T01:11:13.591Z,-2.75
2022-12-13T01:13:41.219Z,-2.77
2022-12-13T01:16:09.919Z,-2.76
2022-12-13T01:18:37.564Z,-2.75
2022-12-13T01:21:11.523Z,-2.75
2022-12-13T01:23:38.145Z,-2.75
2022-12-13T01:26:06.360Z,-2.76
2022-12-13T01:28:33.560Z,-2.79
2022-12-13T01:31:04.508Z,-2.79
2022-12-13T01:33:31.612Z,-2.82
2022-12-13T01:36:02.199Z,-2.83
2022-12-13T01:38:29.150Z,-2.84
2022-12-13T01:40:59.168Z,-2.87
2022-12-13T01:43:50.180Z,-2.91
2022-12-13T01:46:18.082Z,-2.93
2022-12-13T01:48:46.501Z,-2.96
2022-12-13T01:51:17.919Z,-2.94
2022-12-13T01:53:48.810Z,-2.92
2022-12-13T01:56:25.157Z,-2.93
2022-12-13T01:58:54.523Z,-2.92
2022-12-13T02:01:22.376Z,-2.93
2022-12-13T02:03:48.986Z,-2.93
2022-12-13T02:06:21.176Z,-2.96
2022-12-13T02:08:47.725Z,-2.99
2022-12-13T02:11:15.642Z,-2.99
2022-12-13T02:13:42.306Z,-2.99
2022-12-13T02:16:24.193Z,-2.99
2022-12-13T02:19:14.665Z,-2.97
2022-12-13T02:22:01.831Z,-2.96
2022-12-13T02:24:34.421Z,-2.96
2022-12-13T02:27:07.918Z,-2.96
2022-12-13T02:29:56.685Z,-2.96
2022-12-13T02:32:38.595Z,-2.95
2022-12-13T02:35:14.903Z,-2.91
2022-12-13T02:37:56.189Z,-2.91
2022-12-13T02:40:54.747Z,-2.92
2022-12-13T02:43:35.690Z,-2.91
2022-12-13T02:46:04.926Z,-2.91
2022-12-13T02:48:39.799Z,-2.95
2022-12-13T02:51:10.570Z,-2.96
2022-12-13T02:53:40.351Z,-2.99
2022-12-13T02:56:06.951Z,-3.02
2022-12-13T02:58:36.556Z,-3.06
2022-12-13T03:01:28.565Z,-3.08
2022-12-13T03:04:28.050Z,-3.11
2022-12-13T03:07:06.778Z,-3.10
2022-12-13T03:09:41.880Z,-3.11
2022-12-13T03:12:45.344Z,-3.14
2022-12-13T03:15:16.257Z,-3.17
2022-12-13T03:17:59.281Z,-3.19
2022-12-13T03:20:28.593Z,-3.23
2022-12-13T03:22:56.601Z,-3.27
2022-12-13T03:25:31.446Z,-3.28
2022-12-13T03:28:01.724Z,-3.33
2022-12-13T03:30:30.137Z,-3.37
2022-12-13T03:32:56.712Z,-3.40
2022-12-13T03:35:23.503Z,-3.45
2022-12-13T03:37:50.687Z,-3.48
2022-12-13T03:40:19.225Z,-3.50
2022-12-13T03:42:47.034Z,-3.52
2022-12-13T03:45:14.001Z,-3.52
2022-12-13T03:47:40.784Z,-3.49
2022-12-13T03:50:26.999Z,-3.49
2022-12-13T03:53:00.801Z,-3.47
2022-12-13T03:55:28.518Z,-3.46
2022-12-13T03:57:55.496Z,-3.45
2022-12-13T04:00:22.570Z,-3.40
2022-12-13T04:02:49.200Z,-3.38
2022-12-13T04:05:16.377Z,-3.40
2022-12-13T04:07:48.392Z,-3.39
2022-12-13T04:10:26.305Z,-3.40
2022-12-13T04:13:12.837Z,-3.39
2022-12-13T04:15:40.330Z,-3.38
2022-12-13T04:18:06.924Z,-3.33
2022-12-13T04:20:33.524Z,-3.32
2022-12-13T04:23:00.546Z,-3.31
2022-12-13T04:25:27.214Z,-3.28
2022-12-13T04:27:53.826Z,-3.29
2022-12-13T04:30:20.444Z,-3.27
2022-12-13T04:32:47.000Z,-3.26
2022-12-13T04:35:13.650Z,-3.24
2022-12-13T04:37:40.422Z,-3.22
2022-12-13T04:40:11.088Z,-3.23
2022-12-13T04:42:37.787Z,-3.22
2022-12-13T04:45:04.815Z,-3.19
2022-12-13T04:47:31.356Z,-3.19
2022-12-13T04:49:58.085Z,-3.18
2022-12-13T04:52:24.952Z,-3.17
2022-12-13T04:54:55.651Z,-3.17
2022-12-13T04:57:23.553Z,-3.19
2022-12-13T04:59:50.121Z,-3.17
2022-12-13T05:02:16.703Z,-3.15
2022-12-13T05:04:54.009Z,-3.14
2022-12-13T05:07:21.863Z,-3.13
2022-12-13T05:09:48.865Z,-3.11
2022-12-13T05:12:22.307Z,-3.10
2022-12-13T05:14:50.526Z,-3.09
2022-12-13T05:17:17.074Z,-3.10
2022-12-13T05:19:43.672Z,-3.11
2022-12-13T05:22:20.213Z,-3.11
2022-12-13T05:24:47.868Z,-3.12
2022-12-13T05:27:25.841Z,-3.13
2022-12-13T05:30:03.463Z,-3.13
2022-12-13T05:32:43.657Z,-3.12
2022-12-13T05:35:22.120Z,-3.13
2022-12-13T05:37:53.389Z,-3.11
2022-12-13T05:40:20.513Z,-3.12
2022-12-13T05:42:47.107Z,-3.16
2022-12-13T05:45:14.963Z,-3.17
2022-12-13T05:47:41.648Z,-3.17
2022-12-13T05:50:08.357Z,-3.15
2022-12-13T05:52:34.965Z,-3.14
2022-12-13T05:55:01.645Z,-2.44
2022-12-13T05:57:28.648Z,-0.72
2022-12-13T05:59:55.659Z,0.53
2022-12-13T06:02:22.776Z,1.40
2022-12-13T06:04:49.662Z,1.26
2022-12-13T06:07:16.252Z,0.86
2022-12-13T06:09:42.937Z,0.60
2022-12-13T06:12:31.520Z,0.34
2022-12-13T06:15:00.849Z,-0.05
2022-12-13T06:17:36.024Z,-0.38
2022-12-13T06:20:23.987Z,-0.60
2022-12-13T06:22:52.176Z,-0.89
2022-12-13T06:25:30.760Z,-1.10
2022-12-13T06:28:00.739Z,-1.26
2022-12-13T06:30:28.930Z,-1.42
2022-12-13T06:32:55.921Z,-1.59
2022-12-13T06:35:28.108Z,-1.71
2022-12-13T06:38:00.879Z,-1.81
2022-12-13T06:40:31.854Z,-1.91
2022-12-13T06:42:58.381Z,-2.03
2022-12-13T06:45:26.229Z,-2.10
2022-12-13T06:47:52.801Z,-2.19
2022-12-13T06:50:19.495Z,-2.24
2022-12-13T06:52:47.043Z,-2.30
2022-12-13T06:55:14.174Z,-2.33
2022-12-13T06:57:41.339Z,-2.37
2022-12-13T07:00:09.726Z,-2.41
2022-12-13T07:02:38.224Z,-2.44
2022-12-13T07:05:05.343Z,-2.45
2022-12-13T07:07:32.030Z,-2.47
2022-12-13T07:09:58.621Z,-2.49
2022-12-13T07:12:25.240Z,-2.50
2022-12-13T07:14:51.838Z,-2.51
2022-12-13T07:17:31.940Z,-2.52
2022-12-13T07:20:02.475Z,-2.51
2022-12-13T07:22:29.016Z,-2.52
2022-12-13T07:25:01.602Z,-2.53
2022-12-13T07:27:28.206Z,-2.56
2022-12-13T07:29:54.743Z,-2.56
2022-12-13T07:32:21.451Z,-2.57
2022-12-13T07:34:48.049Z,-2.56
2022-12-13T07:37:30.113Z,-2.57
2022-12-13T07:40:03.273Z,-2.57
2022-12-13T07:42:31.021Z,-2.56
2022-12-13T07:44:57.603Z,-2.56
2022-12-13T07:47:25.921Z,-2.52
2022-12-13T07:49:52.585Z,-2.52
2022-12-13T07:52:19.197Z,-2.49
2022-12-13T07:54:45.762Z,-2.46
2022-12-13T07:57:13.356Z,-2.44
2022-12-13T07:59:39.948Z,-2.40
2022-12-13T08:02:07.171Z,-2.37
2022-12-13T08:04:37.547Z,-2.34
2022-12-13T08:07:09.102Z,-2.31
2022-12-13T08:09:36.271Z,-2.28
2022-12-13T08:12:03.419Z,-2.23
2022-12-13T08:14:29.980Z,-2.16
2022-12-13T08:16:56.740Z,-2.10
2022-12-13T08:19:23.681Z,-2.01
2022-12-13T08:21:55.212Z,-1.95
2022-12-13T08:24:28.624Z,-1.90
2022-12-13T08:26:57.446Z,-1.86
2022-12-13T08:29:33.504Z,-1.79
2022-12-13T08:32:12.116Z,-1.74
2022-12-13T08:34:39.157Z,-1.68
2022-12-13T08:37:06.092Z,-1.63
2022-12-13T08:39:37.532Z,-1.58
2022-12-13T08:42:17.211Z,-1.54
2022-12-13T08:44:49.231Z,-1.50
2022-12-13T08:47:24.396Z,-1.47
2022-12-13T08:50:01.832Z,-1.44
2022-12-13T08:52:30.781Z,-1.38
2022-12-13T08:54:57.377Z,-1.33
2022-12-13T08:57:23.960Z,-1.28
2022-12-13T08:59:50.582Z,-1.22
2022-12-13T09:02:17.599Z,-1.20
2022-12-13T09:04:44.559Z,-1.17
2022-12-13T09:07:11.232Z,-1.11
2022-12-13T09:09:37.886Z,-1.03
2022-12-13T09:12:10.958Z,-0.99
2022-12-13T09:14:51.863Z,-0.94
2022-12-13T09:17:24.838Z,-0.92
2022-12-13T09:19:57.776Z,-0.93
2022-12-13T09:22:33.113Z,-0.88
2022-12-13T09:25:02.775Z,-0.80
2022-12-13T09:27:31.311Z,-0.75
2022-12-13T09:30:08.302Z,-0.71
2022-12-13T09:32:34.915Z,-0.67
2022-12-13T09:35:02.100Z,-0.61
2022-12-13T09:37:29.382Z,-0.58
2022-12-13T09:39:55.926Z,-0.57
2022-12-13T09:42:33.761Z,-0.57
2022-12-13T09:45:06.450Z,-0.55
2022-12-13T09:47:51.238Z,-0.54
2022-12-13T09:50:29.729Z,-0.53
2022-12-13T09:53:11.901Z,-0.53
2022-12-13T09:55:50.451Z,-0.53
2022-12-13T09:58:29.790Z,-0.54
2022-12-13T10:00:58.514Z,-0.48
2022-12-13T10:03:26.402Z,-0.42
2022-12-13T10:06:13.763Z,-0.38
2022-12-13T10:08:47.223Z,-0.38
2022-12-13T10:11:14.982Z,-0.35
2022-12-13T10:14:12.421Z,-0.31
2022-12-13T10:16:49.651Z,-0.23
2022-12-13T10:19:28.380Z,-0.18
2022-12-13T10:22:01.244Z,-0.19
2022-12-13T10:24:47.036Z,-0.18
2022-12-13T10:27:16.859Z,-0.15
2022-12-13T10:30:06.055Z,-0.14
2022-12-13T10:32:42.353Z,-0.12
2022-12-13T10:35:21.257Z,-0.12
2022-12-13T10:37:48.146Z,-0.07
2022-12-13T10:40:34.559Z,-0.02
2022-12-13T10:43:20.383Z,0.03
2022-12-13T10:45:55.850Z,0.09
2022-12-13T10:48:25.409Z,0.17
2022-12-13T10:50:58.725Z,0.26
2022-12-13T10:53:33.196Z,0.30
2022-12-13T10:56:02.109Z,0.35
2022-12-13T10:58:38.803Z,0.44
2022-12-13T11:01:19.112Z,0.50
2022-12-13T11:04:03.880Z,0.52
2022-12-13T11:06:47.811Z,0.52
2022-12-13T11:09:22.993Z,0.58
2022-12-13T11:11:58.601Z,0.59
2022-12-13T11:14:31.907Z,0.62
2022-12-13T11:17:07.249Z,0.69
2022-12-13T11:19:51.357Z,0.71
2022-12-13T11:22:29.370Z,0.72
2022-12-13T11:25:06.383Z,0.72
2022-12-13T11:28:37.671Z,0.71
2022-12-13T11:31:15.816Z,0.63
2022-12-13T11:33:51.356Z,0.64
2022-12-13T11:36:36.616Z,0.68
2022-12-13T11:39:16.757Z,0.72
2022-12-13T11:41:49.129Z,0.76
2022-12-13T11:44:23.676Z,0.80
2022-12-13T11:46:54.430Z,0.90
2022-12-13T11:49:36.290Z,0.91
2022-12-13T11:52:11.927Z,0.97
2022-12-13T11:54:55.326Z,1.01
2022-12-13T11:57:35.738Z,1.06
2022-12-13T12:00:33.954Z,1.13
2022-12-13T12:03:18.593Z,1.21
2022-12-13T12:05:56.535Z,1.27
2022-12-13T12:08:44.376Z,1.35
2022-12-13T12:11:33.540Z,1.37
2022-12-13T12:14:11.024Z,1.42
2022-12-13T12:16:47.401Z,1.50
2022-12-13T12:19:16.348Z,1.54
2022-12-13T12:22:12.803Z,1.50
2022-12-13T12:24:48.191Z,1.46
2022-12-13T12:27:28.455Z,1.45
2022-12-13T12:30:08.725Z,1.47
2022-12-13T12:32:44.030Z,1.49
2022-12-13T12:35:50.888Z,1.49
2022-12-13T12:38:32.455Z,1.50
2022-12-13T12:41:18.732Z,1.52
2022-12-13T12:43:55.571Z,1.55
2022-12-13T12:46:22.254Z,1.59
2022-12-13T12:49:29.131Z,1.65
2022-12-13T12:52:15.040Z,1.73
2022-12-13T12:54:41.566Z,1.84
2022-12-13T12:57:30.957Z,1.86
2022-12-13T13:00:16.039Z,1.90
2022-12-13T13:03:09.527Z,1.87
2022-12-13T13:05:58.543Z,1.88
2022-12-13T13:08:54.972Z,1.90
2022-12-13T13:11:27.372Z,1.91
2022-12-13T13:14:36.519Z,1.94
2022-12-13T13:17:25.008Z,2.00
2022-12-13T13:20:13.147Z,1.97
2022-12-13T13:22:42.811Z,1.98
2022-12-13T13:25:09.685Z,1.92
2022-12-13T13:27:41.944Z,1.88
2022-12-13T13:30:19.532Z,1.88
2022-12-13T13:32:47.154Z,1.93
2022-12-13T13:35:28.985Z,1.96
2022-12-13T13:37:57.229Z,1.99
2022-12-13T13:40:34.559Z,2.01
2022-12-13T13:43:10.226Z,1.99
2022-12-13T13:45:52.217Z,1.96
2022-12-13T13:48:24.836Z,1.93
2022-12-13T13:51:27.281Z,1.91
2022-12-13T13:54:31.433Z,1.88
2022-12-13T14:00:44.656Z,1.78
2022-12-13T14:03:34.060Z,1.74
2022-12-13T14:06:25.969Z,1.76
2022-12-13T14:09:14.027Z,1.77
2022-12-13T14:11:43.327Z,1.79
2022-12-13T14:14:21.415Z,1.79
2022-12-13T14:16:49.129Z,1.84
2022-12-13T14:19:30.609Z,1.86
2022-12-13T14:22:22.503Z,1.86
2022-12-13T14:24:51.677Z,1.90
2022-12-13T14:27:42.810Z,1.89
2022-12-13T14:30:28.064Z,1.90
2022-12-13T14:32:56.762Z,1.95
2022-12-13T14:35:30.120Z,1.96
2022-12-13T14:38:20.766Z,1.94
2022-12-13T14:40:49.865Z,1.92
2022-12-13T14:43:25.419Z,1.87
2022-12-13T14:45:58.207Z,1.89
2022-12-13T14:48:28.035Z,1.93
2022-12-13T14:50:55.866Z,1.93
2022-12-13T14:53:41.465Z,1.86
2022-12-13T14:56:28.597Z,1.84
2022-12-13T14:58:58.203Z,1.78
2022-12-13T15:01:29.525Z,1.74
2022-12-13T15:04:35.787Z,1.66
2022-12-13T15:07:06.984Z,1.65
2022-12-13T15:09:42.592Z,1.59
2022-12-13T15:12:23.430Z,1.55
2022-12-13T15:15:00.972Z,1.48
2022-12-13T15:17:31.832Z,1.45
2022-12-13T15:19:58.895Z,1.40
2022-12-13T15:22:29.483Z,1.35
2022-12-13T15:24:58.027Z,1.29
2022-12-13T15:27:25.268Z,1.24
2022-12-13T15:29:54.346Z,1.17
2022-12-13T15:32:23.391Z,1.11
2022-12-13T15:34:51.524Z,1.03
2022-12-13T15:37:28.370Z,0.98
2022-12-13T15:40:00.749Z,0.93
2022-12-13T15:42:37.050Z,0.87
2022-12-13T15:45:06.480Z,0.81
2022-12-13T15:47:33.574Z,0.75
2022-12-13T15:50:04.075Z,0.67
2022-12-13T15:52:37.300Z,0.60
2022-12-13T15:55:07.084Z,0.53
2022-12-13T15:57:51.673Z,0.47
2022-12-13T16:00:18.439Z,0.41
2022-12-13T16:03:09.466Z,0.34
2022-12-13T16:05:40.728Z,0.35
2022-12-13T16:08:17.916Z,0.32
2022-12-13T16:10:49.795Z,0.27
2022-12-13T16:13:47.567Z,0.20
2022-12-13T16:16:46.759Z,0.22
2022-12-13T16:19:17.890Z,0.24
2022-12-13T16:21:44.625Z,0.25
2022-12-13T16:24:11.220Z,0.25
2022-12-13T16:26:43.129Z,0.25
2022-12-13T16:29:11.825Z,0.19
2022-12-13T16:31:38.470Z,0.22
2022-12-13T16:34:05.809Z,0.24
2022-12-13T16:36:32.750Z,0.25
2022-12-13T16:38:59.445Z,0.22
2022-12-13T16:41:26.225Z,0.21
2022-12-13T16:44:03.357Z,0.23
2022-12-13T16:47:16.938Z,0.22
2022-12-13T16:49:21.453Z,0.22
2022-12-13T16:51:49.153Z,0.21
2022-12-13T16:54:17.146Z,0.27
2022-12-13T16:56:43.797Z,0.29
2022-12-13T16:59:19.110Z,0.29
2022-12-13T17:01:46.793Z,0.31
2022-12-13T17:04:20.085Z,0.32
2022-12-13T17:06:47.352Z,0.30
2022-12-13T17:09:15.078Z,0.31
2022-12-13T17:11:41.629Z,0.31
2022-12-13T17:14:08.552Z,0.32
2022-12-13T17:16:35.208Z,0.34
2022-12-13T17:19:02.226Z,0.32
2022-12-13T17:21:30.105Z,0.31
2022-12-13T17:23:58.507Z,0.29
2022-12-13T17:26:26.144Z,0.28
2022-12-13T17:28:52.993Z,0.26
2022-12-13T17:31:20.526Z,0.28
2022-12-13T17:33:47.469Z,0.26
2022-12-13T17:36:15.773Z,0.25
2022-12-13T17:38:47.119Z,0.23
2022-12-13T17:41:15.716Z,0.25
2022-12-13T17:43:43.369Z,0.25
2022-12-13T17:46:13.519Z,0.27
2022-12-13T17:48:41.340Z,0.26
2022-12-13T17:51:12.477Z,0.24
2022-12-13T17:53:41.120Z,0.21
2022-12-13T17:56:10.695Z,0.23
2022-12-13T17:58:37.296Z,0.23
2022-12-13T18:01:33.669Z,0.23
2022-12-13T18:04:00.825Z,0.25
2022-12-13T18:06:27.417Z,0.28
2022-12-13T18:08:54.154Z,0.27
2022-12-13T18:11:32.924Z,0.26
2022-12-13T18:14:01.125Z,0.27
2022-12-13T18:16:35.830Z,0.30
2022-12-13T18:19:06.114Z,0.30
2022-12-13T18:21:33.101Z,0.29
2022-12-13T18:23:59.913Z,0.28
2022-12-13T18:26:26.448Z,0.26
2022-12-13T18:28:53.057Z,0.28
2022-12-13T18:31:23.080Z,0.30
2022-12-13T18:33:50.994Z,0.32
2022-12-13T18:36:19.365Z,0.29
2022-12-13T18:38:46.847Z,0.25
2022-12-13T18:41:16.980Z,0.21
2022-12-13T18:43:45.124Z,0.22
2022-12-13T18:46:14.102Z,0.23
2022-12-13T18:48:41.096Z,0.21
2022-12-13T18:51:08.922Z,0.20
2022-12-13T18:53:37.285Z,0.16
2022-12-13T18:56:07.005Z,0.13
2022-12-13T18:58:34.098Z,0.13
2022-12-13T19:01:01.053Z,0.12
2022-12-13T19:03:28.025Z,0.09
2022-12-13T19:05:59.365Z,0.07
2022-12-13T19:08:26.902Z,0.05
2022-12-13T19:10:56.823Z,0.07
2022-12-13T19:13:25.249Z,0.05
2022-12-13T19:15:53.826Z,0.07
2022-12-13T19:18:20.790Z,0.05
2022-12-13T19:20:49.536Z,0.05
2022-12-13T19:23:17.975Z,0.05
2022-12-13T19:25:45.656Z,0.04
2022-12-13T19:28:17.534Z,0.01
2022-12-13T19:30:46.147Z,0.04
2022-12-13T19:33:14.166Z,0.06
2022-12-13T19:35:44.753Z,0.07
2022-12-13T19:38:12.315Z,0.06
2022-12-13T19:40:40.022Z,0.04
2022-12-13T19:43:07.030Z,0.04
2022-12-13T19:45:34.104Z,0.05
2022-12-13T19:48:00.712Z,0.05
2022-12-13T19:50:28.733Z,0.06
2022-12-13T19:52:55.309Z,0.04
2022-12-13T19:55:21.894Z,0.01
2022-12-13T19:57:48.622Z,-0.03
2022-12-13T20:00:15.635Z,-0.06
2022-12-13T20:02:42.319Z,-0.06
2022-12-13T20:05:09.425Z,-0.08
2022-12-13T20:07:36.080Z,-0.08
2022-12-13T20:10:03.661Z,-0.10
2022-12-13T20:12:31.399Z,-0.11
2022-12-13T20:15:02.743Z,-0.08
2022-12-13T20:17:29.720Z,-0.07
2022-12-13T20:19:56.370Z,-0.08
2022-12-13T20:22:22.933Z,-0.10
2022-12-13T20:24:49.465Z,-0.10
2022-12-13T20:27:16.061Z,-0.10
2022-12-13T20:29:42.680Z,-0.10
2022-12-13T20:32:14.978Z,-0.12
2022-12-13T20:34:41.588Z,-0.12
2022-12-13T20:37:08.190Z,-0.12
2022-12-13T20:39:35.124Z,-0.12
2022-12-13T20:42:01.704Z,-0.13
2022-12-13T20:44:28.403Z,-0.14
2022-12-13T20:46:55.254Z,-0.09
2022-12-13T20:49:21.951Z,-0.07
2022-12-13T20:51:48.481Z,-0.04
2022-12-13T20:54:15.203Z,-0.04
2022-12-13T20:56:41.820Z,-0.03
2022-12-13T20:59:11.872Z,-0.01
2022-12-13T21:01:40.809Z,0.00
2022-12-13T21:04:09.186Z,0.00
2022-12-13T21:06:37.508Z,0.01
2022-12-13T21:09:05.399Z,0.03
2022-12-13T21:11:32.140Z,0.03
2022-12-13T21:14:03.781Z,0.01
2022-12-13T21:16:40.094Z,0.00
2022-12-13T21:19:08.523Z,0.00
2022-12-13T21:21:35.441Z,-0.02
2022-12-13T21:24:03.225Z,-0.01
2022-12-13T21:26:35.371Z,0.02
2022-12-13T21:29:05.083Z,0.00
2022-12-13T21:31:31.883Z,-0.02
2022-12-13T21:34:01.386Z,0.01
2022-12-13T21:36:30.508Z,0.01
2022-12-13T21:39:00.463Z,0.02
2022-12-13T21:41:28.118Z,0.01
2022-12-13T21:43:55.237Z,0.04
2022-12-13T21:46:41.437Z,0.04
2022-12-13T21:49:14.526Z,0.04
2022-12-13T21:51:46.056Z,0.07
2022-12-13T21:54:14.415Z,0.05
2022-12-13T21:56:59.224Z,0.08
2022-12-13T21:59:27.816Z,0.08
2022-12-13T22:02:14.369Z,0.09
2022-12-13T22:04:46.821Z,0.11
2022-12-13T22:07:16.332Z,0.10
2022-12-13T22:09:43.077Z,0.12
2022-12-13T22:12:17.953Z,0.14
2022-12-13T22:14:45.936Z,0.14
2022-12-13T22:17:12.806Z,0.11
2022-12-13T22:19:39.942Z,0.11
2022-12-13T22:22:06.862Z,0.12
2022-12-13T22:24:33.809Z,0.13
2022-12-13T22:27:00.974Z,0.15
2022-12-13T22:29:27.714Z,0.13
2022-12-13T22:31:54.325Z,0.12
2022-12-13T22:34:20.964Z,0.09
2022-12-13T22:36:47.499Z,0.07
2022-12-13T22:39:19.636Z,0.06
2022-12-13T22:41:47.726Z,0.09
2022-12-13T22:44:16.249Z,0.12
2022-12-13T22:46:43.223Z,0.12
2022-12-13T22:49:10.950Z,0.09
2022-12-13T22:51:38.700Z,0.08
2022-12-13T22:54:05.752Z,0.08
2022-12-13T22:56:32.424Z,0.10
2022-12-13T22:59:01.936Z,0.09
2022-12-13T23:01:31.607Z,0.11
2022-12-13T23:03:58.891Z,0.13
2022-12-13T23:06:30.887Z,0.14
2022-12-13T23:09:00.101Z,0.16
2022-12-13T23:11:46.273Z,0.13
2022-12-13T23:14:15.619Z,0.14
2022-12-13T23:16:42.851Z,0.13
2022-12-13T23:19:40.220Z,0.09
2022-12-13T23:21:58.142Z,0.05
2022-12-13T23:24:24.901Z,0.04
2022-12-13T23:26:51.701Z,0.05
2022-12-13T23:29:18.336Z,0.04
2022-12-13T23:31:48.912Z,0.02
2022-12-13T23:34:16.241Z,0.03
2022-12-13T23:36:43.005Z,0.01
2022-12-13T23:39:10.973Z,0.00
2022-12-13T23:41:37.628Z,0.01
2022-12-13T23:44:04.715Z,0.03
2022-12-13T23:46:33.726Z,0.05
2022-12-13T23:49:01.638Z,0.08
2022-12-13T23:51:28.485Z,0.10
2022-12-13T23:53:55.386Z,0.10
2022-12-13T23:56:22.777Z,0.11
2022-12-13T23:58:49.719Z,0.16
